createdAt,value
2017-12-15T00:00:20.556Z,20.90
2017-12-15T00:00:52.238Z,20.89
2017-12-15T00:01:23.863Z,20.89
2017-12-15T00:01:55.495Z,20.92
2017-12-15T00:02:27.357Z,20.93
2017-12-15T00:02:58.986Z,20.95
2017-12-15T00:03:30.610Z,20.97
2017-12-15T00:04:02.352Z,20.97
2017-12-15T00:04:33.990Z,20.93
2017-12-15T00:05:05.666Z,20.96
2017-12-15T00:05:37.294Z,20.96
2017-12-15T00:06:08.926Z,20.96
2017-12-15T00:06:40.869Z,20.97
2017-12-15T00:07:12.510Z,20.97
2017-12-15T00:07:44.341Z,20.99
2017-12-15T00:08:16.102Z,21.02
2017-12-15T00:08:47.741Z,21.02
2017-12-15T00:09:19.386Z,21.05
2017-12-15T00:09:51.025Z,21.04
2017-12-15T00:10:22.702Z,21.04
2017-12-15T00:10:54.328Z,21.07
2017-12-15T00:11:26.261Z,21.10
2017-12-15T00:11:57.902Z,21.10
2017-12-15T00:12:29.544Z,21.08
2017-12-15T00:13:01.184Z,21.08
2017-12-15T00:13:32.825Z,21.08
2017-12-15T00:14:04.466Z,21.11
2017-12-15T00:14:36.109Z,21.12
2017-12-15T00:15:08.061Z,21.11
2017-12-15T00:15:40.010Z,21.12
2017-12-15T00:16:11.682Z,21.13
2017-12-15T00:16:43.302Z,21.14
2017-12-15T00:17:15.162Z,21.12
2017-12-15T00:17:46.790Z,21.14
2017-12-15T00:18:18.528Z,21.10
2017-12-15T00:18:50.166Z,21.07
2017-12-15T00:19:21.981Z,21.07
2017-12-15T00:19:53.606Z,21.08
2017-12-15T00:20:25.242Z,21.07
2017-12-15T00:20:56.875Z,21.05
2017-12-15T00:21:28.551Z,21.05
2017-12-15T00:22:00.174Z,21.07
2017-12-15T00:22:31.805Z,21.06
2017-12-15T00:23:03.426Z,21.05
2017-12-15T00:23:35.059Z,21.07
2017-12-15T00:24:06.895Z,21.08
2017-12-15T00:24:38.541Z,21.04
2017-12-15T00:25:10.415Z,21.00
2017-12-15T00:25:42.038Z,21.00
2017-12-15T00:26:13.769Z,21.00
2017-12-15T00:26:45.459Z,20.99
2017-12-15T00:27:17.085Z,21.02
2017-12-15T00:27:48.719Z,21.03
2017-12-15T00:28:20.351Z,21.01
2017-12-15T00:28:52.180Z,21.01
2017-12-15T00:29:23.938Z,20.99
2017-12-15T00:29:55.878Z,20.96
2017-12-15T00:30:27.517Z,20.92
2017-12-15T00:30:59.158Z,20.93
2017-12-15T00:31:30.800Z,20.94
2017-12-15T00:32:02.466Z,20.96
2017-12-15T00:32:34.114Z,20.95
2017-12-15T00:33:05.738Z,20.92
2017-12-15T00:33:37.372Z,20.92
2017-12-15T00:34:09.010Z,20.93
2017-12-15T00:34:40.653Z,20.93
2017-12-15T00:35:12.486Z,20.93
2017-12-15T00:35:44.245Z,20.91
2017-12-15T00:36:15.910Z,20.89
2017-12-15T00:36:47.578Z,20.91
2017-12-15T00:37:19.478Z,20.90
2017-12-15T00:37:51.118Z,20.88
2017-12-15T00:38:22.746Z,20.88
2017-12-15T00:38:54.374Z,20.85
2017-12-15T00:39:26.047Z,20.86
2017-12-15T00:39:57.683Z,20.81
2017-12-15T00:40:29.328Z,20.82
2017-12-15T00:41:01.002Z,20.81
2017-12-15T00:41:32.629Z,20.84
2017-12-15T00:42:04.260Z,20.85
2017-12-15T00:42:36.089Z,20.82
2017-12-15T00:43:07.847Z,20.84
2017-12-15T00:43:39.796Z,20.81
2017-12-15T00:44:11.435Z,20.82
2017-12-15T00:44:43.084Z,20.82
2017-12-15T00:45:14.721Z,20.79
2017-12-15T00:45:46.363Z,20.79
2017-12-15T00:46:18.001Z,20.79
2017-12-15T00:46:49.646Z,20.79
2017-12-15T00:47:21.285Z,20.79
2017-12-15T00:47:52.930Z,20.79
2017-12-15T00:48:24.571Z,20.76
2017-12-15T00:48:56.212Z,20.78
2017-12-15T00:49:27.857Z,20.78
2017-12-15T00:49:59.499Z,20.78
2017-12-15T00:50:31.141Z,20.77
2017-12-15T00:51:02.779Z,20.73
2017-12-15T00:51:34.454Z,20.76
2017-12-15T00:52:06.078Z,20.74
2017-12-15T00:52:37.711Z,20.73
2017-12-15T00:53:09.349Z,20.73
2017-12-15T00:53:40.992Z,20.74
2017-12-15T00:54:12.650Z,20.75
2017-12-15T00:54:44.503Z,20.73
2017-12-15T00:55:16.130Z,20.71
2017-12-15T00:55:47.866Z,20.72
2017-12-15T00:56:19.508Z,20.72
2017-12-15T00:56:51.183Z,20.70
2017-12-15T00:57:22.842Z,20.71
2017-12-15T00:57:54.475Z,20.71
2017-12-15T00:58:26.107Z,20.72
2017-12-15T00:58:57.730Z,20.70
2017-12-15T00:59:29.667Z,20.70
2017-12-15T01:00:01.307Z,20.68
2017-12-15T01:00:32.948Z,20.65
2017-12-15T01:01:04.590Z,20.66
2017-12-15T01:01:36.232Z,20.67
2017-12-15T01:02:07.904Z,20.66
2017-12-15T01:02:39.538Z,20.68
2017-12-15T01:03:11.167Z,20.63
2017-12-15T01:03:43.029Z,20.65
2017-12-15T01:04:14.658Z,20.63
2017-12-15T01:04:46.394Z,20.65
2017-12-15T01:05:18.033Z,20.65
2017-12-15T01:05:49.678Z,20.65
2017-12-15T01:06:21.319Z,20.64
2017-12-15T01:06:52.957Z,20.63
2017-12-15T01:07:24.600Z,20.63
2017-12-15T01:07:56.242Z,20.64
2017-12-15T01:08:27.884Z,20.65
2017-12-15T01:08:59.550Z,20.65
2017-12-15T01:09:31.185Z,20.65
2017-12-15T01:10:03.084Z,20.64
2017-12-15T01:10:34.758Z,20.64
2017-12-15T01:11:06.400Z,20.62
2017-12-15T01:11:38.042Z,20.62
2017-12-15T01:12:09.687Z,20.63
2017-12-15T01:12:41.332Z,20.62
2017-12-15T01:13:12.954Z,20.62
2017-12-15T01:13:44.613Z,20.63
2017-12-15T01:14:16.282Z,20.63
2017-12-15T01:14:47.910Z,20.62
2017-12-15T01:15:19.846Z,20.65
2017-12-15T01:15:51.484Z,20.71
2017-12-15T01:16:23.127Z,20.72
2017-12-15T01:16:54.772Z,20.71
2017-12-15T01:17:26.402Z,20.69
2017-12-15T01:17:58.053Z,20.65
2017-12-15T01:18:29.694Z,20.62
2017-12-15T01:19:01.374Z,20.59
2017-12-15T01:19:32.995Z,20.59
2017-12-15T01:20:04.615Z,20.58
2017-12-15T01:20:36.262Z,20.60
2017-12-15T01:21:07.907Z,20.61
2017-12-15T01:21:39.546Z,20.60
2017-12-15T01:22:11.188Z,20.61
2017-12-15T01:22:42.832Z,20.61
2017-12-15T01:23:14.474Z,20.61
2017-12-15T01:23:46.421Z,20.61
2017-12-15T01:24:18.090Z,20.63
2017-12-15T01:24:49.718Z,20.64
2017-12-15T01:25:21.589Z,20.65
2017-12-15T01:25:53.218Z,20.63
2017-12-15T01:26:24.842Z,20.67
2017-12-15T01:26:56.583Z,20.68
2017-12-15T01:27:28.532Z,20.70
2017-12-15T01:28:00.173Z,20.68
2017-12-15T01:28:31.816Z,20.66
2017-12-15T01:29:03.454Z,20.66
2017-12-15T01:29:35.095Z,20.67
2017-12-15T01:30:06.763Z,20.69
2017-12-15T01:30:38.392Z,20.68
2017-12-15T01:31:10.030Z,20.68
2017-12-15T01:31:41.669Z,20.69
2017-12-15T01:32:13.616Z,20.69
2017-12-15T01:32:45.257Z,20.72
2017-12-15T01:33:17.207Z,20.71
2017-12-15T01:33:48.847Z,20.69
2017-12-15T01:34:20.530Z,20.70
2017-12-15T01:34:52.165Z,20.71
2017-12-15T01:35:23.791Z,20.71
2017-12-15T01:35:55.723Z,20.72
2017-12-15T01:36:27.362Z,20.72
2017-12-15T01:36:59.005Z,20.72
2017-12-15T01:37:30.649Z,20.72
2017-12-15T01:38:02.292Z,20.70
2017-12-15T01:38:33.931Z,20.75
2017-12-15T01:39:05.572Z,20.75
2017-12-15T01:39:37.234Z,20.76
2017-12-15T01:40:09.094Z,20.75
2017-12-15T01:40:40.722Z,20.75
2017-12-15T01:41:12.390Z,20.80
2017-12-15T01:41:44.023Z,20.80
2017-12-15T01:42:15.646Z,20.81
2017-12-15T01:42:47.375Z,20.81
2017-12-15T01:43:19.014Z,20.84
2017-12-15T01:43:50.647Z,20.83
2017-12-15T01:44:22.299Z,20.83
2017-12-15T01:44:53.940Z,20.84
2017-12-15T01:45:25.581Z,20.84
2017-12-15T01:45:57.258Z,20.84
2017-12-15T01:46:28.878Z,20.84
2017-12-15T01:47:00.751Z,20.86
2017-12-15T01:47:32.379Z,20.87
2017-12-15T01:48:04.006Z,20.89
2017-12-15T01:48:35.744Z,20.88
2017-12-15T01:49:07.386Z,20.89
2017-12-15T01:49:39.028Z,20.90
2017-12-15T01:50:10.669Z,20.92
2017-12-15T01:50:42.309Z,20.90
2017-12-15T01:51:13.974Z,20.90
2017-12-15T01:51:45.603Z,20.92
2017-12-15T01:52:17.461Z,20.94
2017-12-15T01:52:49.094Z,20.91
2017-12-15T01:53:20.828Z,20.90
2017-12-15T01:53:52.493Z,20.90
2017-12-15T01:54:24.122Z,20.87
2017-12-15T01:54:56.060Z,20.90
2017-12-15T01:55:27.704Z,20.92
2017-12-15T01:55:59.344Z,20.89
2017-12-15T01:56:30.997Z,20.91
2017-12-15T01:57:02.821Z,20.89
2017-12-15T01:57:34.579Z,20.92
2017-12-15T01:58:06.216Z,20.91
2017-12-15T01:58:37.858Z,20.90
2017-12-15T01:59:09.504Z,20.90
2017-12-15T01:59:41.144Z,20.90
2017-12-15T02:00:12.784Z,20.85
2017-12-15T02:00:44.429Z,20.85
2017-12-15T02:01:16.068Z,20.83
2017-12-15T02:01:47.712Z,20.82
2017-12-15T02:02:19.390Z,20.87
2017-12-15T02:02:51.014Z,20.87
2017-12-15T02:03:22.638Z,20.85
2017-12-15T02:03:54.277Z,20.84
2017-12-15T02:04:25.921Z,20.82
2017-12-15T02:04:57.564Z,20.82
2017-12-15T02:05:29.206Z,20.81
2017-12-15T02:06:00.848Z,20.82
2017-12-15T02:06:32.489Z,20.83
2017-12-15T02:07:04.129Z,20.83
2017-12-15T02:07:35.771Z,20.82
2017-12-15T02:08:07.419Z,20.83
2017-12-15T02:08:39.052Z,20.81
2017-12-15T02:09:10.699Z,20.79
2017-12-15T02:09:42.350Z,20.80
2017-12-15T02:10:14.182Z,20.78
2017-12-15T02:10:45.933Z,20.79
2017-12-15T02:11:17.574Z,20.78
2017-12-15T02:11:49.216Z,20.76
2017-12-15T02:12:20.855Z,20.80
2017-12-15T02:12:52.538Z,20.81
2017-12-15T02:13:24.171Z,20.82
2017-12-15T02:13:55.802Z,20.79
2017-12-15T02:14:27.430Z,20.79
2017-12-15T02:14:59.068Z,20.77
2017-12-15T02:15:30.709Z,20.75
2017-12-15T02:16:02.349Z,20.77
2017-12-15T02:16:33.991Z,20.79
2017-12-15T02:17:05.636Z,20.77
2017-12-15T02:17:37.276Z,20.76
2017-12-15T02:18:08.945Z,20.77
2017-12-15T02:18:40.574Z,20.78
2017-12-15T02:19:12.206Z,20.74
2017-12-15T02:19:43.846Z,20.75
2017-12-15T02:20:15.486Z,20.74
2017-12-15T02:20:47.126Z,20.75
2017-12-15T02:21:18.795Z,20.68
2017-12-15T02:21:50.417Z,20.73
2017-12-15T02:22:22.054Z,20.74
2017-12-15T02:22:53.692Z,20.74
2017-12-15T02:23:25.363Z,20.71
2017-12-15T02:23:56.990Z,20.70
2017-12-15T02:24:28.818Z,20.70
2017-12-15T02:25:00.572Z,20.70
2017-12-15T02:25:32.210Z,20.70
2017-12-15T02:26:03.852Z,20.72
2017-12-15T02:26:35.494Z,20.69
2017-12-15T02:27:07.139Z,20.68
2017-12-15T02:27:38.807Z,20.67
2017-12-15T02:28:10.433Z,20.68
2017-12-15T02:28:42.065Z,20.66
2017-12-15T02:29:13.703Z,20.65
2017-12-15T02:29:45.345Z,20.64
2017-12-15T02:30:16.991Z,20.65
2017-12-15T02:30:48.879Z,20.65
2017-12-15T02:31:20.582Z,20.65
2017-12-15T02:31:52.493Z,20.65
2017-12-15T02:32:24.127Z,20.65
2017-12-15T02:32:55.763Z,20.69
2017-12-15T02:33:27.394Z,20.66
2017-12-15T02:33:59.024Z,20.68
2017-12-15T02:34:30.656Z,20.68
2017-12-15T02:35:02.282Z,20.70
2017-12-15T02:35:34.023Z,20.70
2017-12-15T02:36:05.706Z,20.71
2017-12-15T02:36:37.335Z,20.70
2017-12-15T02:37:08.959Z,20.69
2017-12-15T02:37:40.705Z,20.71
2017-12-15T02:38:12.451Z,20.71
2017-12-15T02:38:44.181Z,20.71
2017-12-15T02:39:15.814Z,20.71
2017-12-15T02:39:47.463Z,20.68
2017-12-15T02:40:19.108Z,20.71
2017-12-15T02:40:50.750Z,20.69
2017-12-15T02:41:22.414Z,20.68
2017-12-15T02:41:54.040Z,20.68
2017-12-15T02:42:25.675Z,20.66
2017-12-15T02:42:57.320Z,20.65
2017-12-15T02:43:28.983Z,20.66
2017-12-15T02:44:00.609Z,20.65
2017-12-15T02:44:32.243Z,20.65
2017-12-15T02:45:03.882Z,20.62
2017-12-15T02:45:35.522Z,20.63
2017-12-15T02:46:07.165Z,20.61
2017-12-15T02:46:38.807Z,20.60
2017-12-15T02:47:10.479Z,20.61
2017-12-15T02:47:42.102Z,20.61
2017-12-15T02:48:13.740Z,20.62
2017-12-15T02:48:45.569Z,20.63
2017-12-15T02:49:17.327Z,20.61
2017-12-15T02:49:48.966Z,20.63
2017-12-15T02:50:20.607Z,20.63
2017-12-15T02:50:52.254Z,20.64
2017-12-15T02:51:23.894Z,20.64
2017-12-15T02:51:55.918Z,20.67
2017-12-15T02:52:27.795Z,20.68
2017-12-15T02:52:59.431Z,20.65
2017-12-15T02:53:31.073Z,20.63
2017-12-15T02:54:02.707Z,20.64
2017-12-15T02:54:34.358Z,20.63
2017-12-15T02:55:06.003Z,20.65
2017-12-15T02:55:37.653Z,20.66
2017-12-15T02:56:09.595Z,20.70
2017-12-15T02:56:41.236Z,20.72
2017-12-15T02:57:12.865Z,20.73
2017-12-15T02:57:44.519Z,20.73
2017-12-15T02:58:16.465Z,20.71
2017-12-15T02:58:48.108Z,20.70
2017-12-15T02:59:19.778Z,20.68
2017-12-15T02:59:51.405Z,20.68
2017-12-15T03:00:23.344Z,20.66
2017-12-15T03:00:54.980Z,20.68
2017-12-15T03:01:26.622Z,20.70
2017-12-15T03:01:58.254Z,20.71
2017-12-15T03:02:29.879Z,20.70
2017-12-15T03:03:01.510Z,20.71
2017-12-15T03:03:33.137Z,20.71
2017-12-15T03:04:04.766Z,20.71
2017-12-15T03:04:36.435Z,20.73
2017-12-15T03:05:08.061Z,20.73
2017-12-15T03:05:39.682Z,20.74
2017-12-15T03:06:11.310Z,20.74
2017-12-15T03:06:43.046Z,20.75
2017-12-15T03:07:14.715Z,20.76
2017-12-15T03:07:46.339Z,20.73
2017-12-15T03:08:18.280Z,20.72
2017-12-15T03:08:50.228Z,20.73
2017-12-15T03:09:21.869Z,20.73
2017-12-15T03:09:53.511Z,20.73
2017-12-15T03:10:25.139Z,20.75
2017-12-15T03:10:56.767Z,20.74
2017-12-15T03:11:28.401Z,20.71
2017-12-15T03:12:00.026Z,20.71
2017-12-15T03:12:31.662Z,20.68
2017-12-15T03:13:03.291Z,20.65
2017-12-15T03:13:34.914Z,20.67
2017-12-15T03:14:06.648Z,20.65
2017-12-15T03:14:38.278Z,20.64
2017-12-15T03:15:09.928Z,20.63
2017-12-15T03:15:41.573Z,20.61
2017-12-15T03:16:13.239Z,20.59
2017-12-15T03:16:45.046Z,20.57
2017-12-15T03:17:16.805Z,20.57
2017-12-15T03:17:48.449Z,20.57
2017-12-15T03:18:20.282Z,20.54
2017-12-15T03:18:52.039Z,20.55
2017-12-15T03:19:23.679Z,20.56
2017-12-15T03:19:55.321Z,20.57
2017-12-15T03:20:27.012Z,20.57
2017-12-15T03:20:58.850Z,20.54
2017-12-15T03:21:30.479Z,20.52
2017-12-15T03:22:02.135Z,20.52
2017-12-15T03:22:33.762Z,20.51
2017-12-15T03:23:05.394Z,20.51
2017-12-15T03:23:37.122Z,20.52
2017-12-15T03:24:08.750Z,20.54
2017-12-15T03:24:40.404Z,20.54
2017-12-15T03:25:12.045Z,20.53
2017-12-15T03:25:43.715Z,20.52
2017-12-15T03:26:15.343Z,20.52
2017-12-15T03:26:47.281Z,20.53
2017-12-15T03:27:19.230Z,20.51
2017-12-15T03:27:50.872Z,20.52
2017-12-15T03:28:22.543Z,20.52
2017-12-15T03:28:54.166Z,20.53
2017-12-15T03:29:26.025Z,20.54
2017-12-15T03:29:57.649Z,20.55
2017-12-15T03:30:29.390Z,20.54
2017-12-15T03:31:01.031Z,20.55
2017-12-15T03:31:32.680Z,20.56
2017-12-15T03:32:04.305Z,20.56
2017-12-15T03:32:35.983Z,20.55
2017-12-15T03:33:07.601Z,20.57
2017-12-15T03:33:39.237Z,20.55
2017-12-15T03:34:10.878Z,20.57
2017-12-15T03:34:42.523Z,20.59
2017-12-15T03:35:14.150Z,20.58
2017-12-15T03:35:45.778Z,20.57
2017-12-15T03:36:17.414Z,20.58
2017-12-15T03:36:49.042Z,20.57
2017-12-15T03:37:20.674Z,20.58
2017-12-15T03:37:52.375Z,20.59
2017-12-15T03:38:24.014Z,20.61
2017-12-15T03:38:55.659Z,20.62
2017-12-15T03:39:27.298Z,20.64
2017-12-15T03:39:58.940Z,20.66
2017-12-15T03:40:30.582Z,20.65
2017-12-15T03:41:02.415Z,20.65
2017-12-15T03:41:34.038Z,20.64
2017-12-15T03:42:05.670Z,20.65
2017-12-15T03:42:37.303Z,20.64
2017-12-15T03:43:08.966Z,20.65
2017-12-15T03:43:40.589Z,20.65
2017-12-15T03:44:12.222Z,20.64
2017-12-15T03:44:43.894Z,20.67
2017-12-15T03:45:15.527Z,20.66
2017-12-15T03:45:47.155Z,20.66
2017-12-15T03:46:18.786Z,20.65
2017-12-15T03:46:50.408Z,20.64
2017-12-15T03:47:22.040Z,20.64
2017-12-15T03:47:53.872Z,20.66
2017-12-15T03:48:25.517Z,20.66
2017-12-15T03:48:57.162Z,20.66
2017-12-15T03:49:28.805Z,20.68
2017-12-15T03:50:00.466Z,20.68
2017-12-15T03:50:32.094Z,20.70
2017-12-15T03:51:03.730Z,20.70
2017-12-15T03:51:35.372Z,20.71
2017-12-15T03:52:07.321Z,20.71
2017-12-15T03:52:38.963Z,20.70
2017-12-15T03:53:10.601Z,20.71
2017-12-15T03:53:42.243Z,20.72
2017-12-15T03:54:13.910Z,20.71
2017-12-15T03:54:45.591Z,20.73
2017-12-15T03:55:17.222Z,20.73
2017-12-15T03:55:48.855Z,20.72
2017-12-15T03:56:20.477Z,20.71
2017-12-15T03:56:52.110Z,20.71
2017-12-15T03:57:23.744Z,20.70
2017-12-15T03:57:55.381Z,20.73
2017-12-15T03:58:27.020Z,20.74
2017-12-15T03:58:58.662Z,20.74
2017-12-15T03:59:30.559Z,20.75
2017-12-15T04:00:02.274Z,20.74
2017-12-15T04:00:33.902Z,20.76
2017-12-15T04:01:05.534Z,20.76
2017-12-15T04:01:37.182Z,20.75
2017-12-15T04:02:08.824Z,20.74
2017-12-15T04:02:40.990Z,20.78
2017-12-15T04:03:12.723Z,20.82
2017-12-15T04:03:44.598Z,20.82
2017-12-15T04:04:16.262Z,20.84
2017-12-15T04:04:47.894Z,20.82
2017-12-15T04:05:19.568Z,20.82
2017-12-15T04:05:51.198Z,20.81
2017-12-15T04:06:22.823Z,20.80
2017-12-15T04:06:54.449Z,20.80
2017-12-15T04:07:26.079Z,20.80
2017-12-15T04:07:57.806Z,20.79
2017-12-15T04:08:29.448Z,20.80
2017-12-15T04:09:01.087Z,20.80
2017-12-15T04:09:32.729Z,20.80
2017-12-15T04:10:04.384Z,20.79
2017-12-15T04:10:36.031Z,20.79
2017-12-15T04:11:07.663Z,20.79
2017-12-15T04:11:39.300Z,20.78
2017-12-15T04:12:10.939Z,20.79
2017-12-15T04:12:42.584Z,20.77
2017-12-15T04:13:14.217Z,20.77
2017-12-15T04:13:45.867Z,20.77
2017-12-15T04:14:17.506Z,20.77
2017-12-15T04:14:49.149Z,20.77
2017-12-15T04:15:20.791Z,20.74
2017-12-15T04:15:52.462Z,20.75
2017-12-15T04:16:24.091Z,20.76
2017-12-15T04:16:55.722Z,20.76
2017-12-15T04:17:27.346Z,20.78
2017-12-15T04:17:58.971Z,20.76
2017-12-15T04:18:30.598Z,20.76
2017-12-15T04:19:02.228Z,20.77
2017-12-15T04:19:33.859Z,20.75
2017-12-15T04:20:05.485Z,20.76
2017-12-15T04:20:37.118Z,20.76
2017-12-15T04:21:08.787Z,20.75
2017-12-15T04:21:40.415Z,20.76
2017-12-15T04:22:12.043Z,20.76
2017-12-15T04:22:43.780Z,20.76
2017-12-15T04:23:15.423Z,20.76
2017-12-15T04:23:47.083Z,20.76
2017-12-15T04:24:18.710Z,20.76
2017-12-15T04:24:50.371Z,20.73
2017-12-15T04:25:21.998Z,20.73
2017-12-15T04:25:53.627Z,20.75
2017-12-15T04:26:25.272Z,20.75
2017-12-15T04:26:56.911Z,20.75
2017-12-15T04:27:28.557Z,20.75
2017-12-15T04:28:00.196Z,20.73
2017-12-15T04:28:31.840Z,20.74
2017-12-15T04:29:03.479Z,20.74
2017-12-15T04:29:35.124Z,20.74
2017-12-15T04:30:06.786Z,20.73
2017-12-15T04:30:38.418Z,20.74
2017-12-15T04:31:10.357Z,20.72
2017-12-15T04:31:41.999Z,20.73
2017-12-15T04:32:13.644Z,20.75
2017-12-15T04:32:45.280Z,20.72
2017-12-15T04:33:16.958Z,20.74
2017-12-15T04:33:48.586Z,20.74
2017-12-15T04:34:20.215Z,20.74
2017-12-15T04:34:52.158Z,20.73
2017-12-15T04:35:23.797Z,20.72
2017-12-15T04:35:55.439Z,20.72
2017-12-15T04:36:27.083Z,20.73
2017-12-15T04:36:58.956Z,20.73
2017-12-15T04:37:30.582Z,20.70
2017-12-15T04:38:02.242Z,20.73
2017-12-15T04:38:33.955Z,20.72
2017-12-15T04:39:05.597Z,20.73
2017-12-15T04:39:37.242Z,20.71
2017-12-15T04:40:08.884Z,20.71
2017-12-15T04:40:40.526Z,20.70
2017-12-15T04:41:12.167Z,20.71
2017-12-15T04:41:43.834Z,20.70
2017-12-15T04:42:15.458Z,20.70
2017-12-15T04:42:47.134Z,20.70
2017-12-15T04:43:18.767Z,20.71
2017-12-15T04:43:50.391Z,20.70
2017-12-15T04:44:22.254Z,20.70
2017-12-15T04:44:53.882Z,20.71
2017-12-15T04:45:25.514Z,20.72
2017-12-15T04:45:57.252Z,20.73
2017-12-15T04:46:28.894Z,20.73
2017-12-15T04:47:00.533Z,20.73
2017-12-15T04:47:32.182Z,20.72
2017-12-15T04:48:03.864Z,20.74
2017-12-15T04:48:35.499Z,20.73
2017-12-15T04:49:07.162Z,20.71
2017-12-15T04:49:38.786Z,20.71
2017-12-15T04:50:10.414Z,20.70
2017-12-15T04:50:42.042Z,20.71
2017-12-15T04:51:13.909Z,20.71
2017-12-15T04:51:45.538Z,20.71
2017-12-15T04:52:17.262Z,20.70
2017-12-15T04:52:48.901Z,20.74
2017-12-15T04:53:20.567Z,20.72
2017-12-15T04:53:52.195Z,20.73
2017-12-15T04:54:24.137Z,20.73
2017-12-15T04:54:56.086Z,20.74
2017-12-15T04:55:27.718Z,20.72
2017-12-15T04:55:59.348Z,20.70
2017-12-15T04:56:31.012Z,20.69
2017-12-15T04:57:02.763Z,20.70
2017-12-15T04:57:34.395Z,20.71
2017-12-15T04:58:06.245Z,20.70
2017-12-15T04:58:37.886Z,20.72
2017-12-15T04:59:09.528Z,20.72
2017-12-15T04:59:41.154Z,20.71
2017-12-15T05:00:12.841Z,20.71
2017-12-15T05:00:44.470Z,20.71
2017-12-15T05:01:16.119Z,20.69
2017-12-15T05:01:47.747Z,20.69
2017-12-15T05:02:19.687Z,20.67
2017-12-15T05:02:51.329Z,20.66
2017-12-15T05:03:22.968Z,20.69
2017-12-15T05:03:54.611Z,20.66
2017-12-15T05:04:26.252Z,20.67
2017-12-15T05:04:57.893Z,20.68
2017-12-15T05:05:29.817Z,20.67
2017-12-15T05:06:01.442Z,20.68
2017-12-15T05:06:33.062Z,20.68
2017-12-15T05:07:04.686Z,20.68
2017-12-15T05:07:36.413Z,20.68
2017-12-15T05:08:08.057Z,20.70
2017-12-15T05:08:39.694Z,20.73
2017-12-15T05:09:11.338Z,20.72
2017-12-15T05:09:42.978Z,20.71
2017-12-15T05:10:14.620Z,20.69
2017-12-15T05:10:46.291Z,20.69
2017-12-15T05:11:17.922Z,20.69
2017-12-15T05:11:49.554Z,20.71
2017-12-15T05:12:21.198Z,20.69
2017-12-15T05:12:52.833Z,20.68
2017-12-15T05:13:24.506Z,20.71
2017-12-15T05:13:56.134Z,20.72
2017-12-15T05:14:27.763Z,20.70
2017-12-15T05:14:59.399Z,20.71
2017-12-15T05:15:31.043Z,20.70
2017-12-15T05:16:02.991Z,20.71
2017-12-15T05:16:34.619Z,20.73
2017-12-15T05:17:06.274Z,20.74
2017-12-15T05:17:37.914Z,20.72
2017-12-15T05:18:09.556Z,20.73
2017-12-15T05:18:41.226Z,20.71
2017-12-15T05:19:12.850Z,20.71
2017-12-15T05:19:44.676Z,20.72
2017-12-15T05:20:16.434Z,20.74
2017-12-15T05:20:48.075Z,20.71
2017-12-15T05:21:19.714Z,20.70
2017-12-15T05:21:51.356Z,20.71
2017-12-15T05:22:22.998Z,20.72
2017-12-15T05:22:54.640Z,20.72
2017-12-15T05:23:26.270Z,20.71
2017-12-15T05:23:57.894Z,20.74
2017-12-15T05:24:29.568Z,20.72
2017-12-15T05:25:01.201Z,20.74
2017-12-15T05:25:32.849Z,20.74
2017-12-15T05:26:04.498Z,20.73
2017-12-15T05:26:36.136Z,20.71
2017-12-15T05:27:07.797Z,20.69
2017-12-15T05:27:39.471Z,20.67
2017-12-15T05:28:11.111Z,20.70
2017-12-15T05:28:42.743Z,20.69
2017-12-15T05:29:14.366Z,20.70
2017-12-15T05:29:46.295Z,20.70
2017-12-15T05:30:17.934Z,20.72
2017-12-15T05:30:49.562Z,20.72
2017-12-15T05:31:21.218Z,20.72
2017-12-15T05:31:52.858Z,20.72
2017-12-15T05:32:24.501Z,20.73
2017-12-15T05:32:56.162Z,20.71
2017-12-15T05:33:27.987Z,20.72
2017-12-15T05:33:59.737Z,20.69
2017-12-15T05:34:31.378Z,20.70
2017-12-15T05:35:03.048Z,20.69
2017-12-15T05:35:34.674Z,20.67
2017-12-15T05:36:06.303Z,20.68
2017-12-15T05:36:37.946Z,20.71
2017-12-15T05:37:09.588Z,20.69
2017-12-15T05:37:41.233Z,20.71
2017-12-15T05:38:12.872Z,20.71
2017-12-15T05:38:44.518Z,20.72
2017-12-15T05:39:16.155Z,20.73
2017-12-15T05:39:47.795Z,20.73
2017-12-15T05:40:19.458Z,20.73
2017-12-15T05:40:51.114Z,20.74
2017-12-15T05:41:22.734Z,20.68
2017-12-15T05:41:54.368Z,20.76
2017-12-15T05:42:26.007Z,20.75
2017-12-15T05:42:57.649Z,20.75
2017-12-15T05:43:29.318Z,20.74
2017-12-15T05:44:00.946Z,20.74
2017-12-15T05:44:32.942Z,20.74
2017-12-15T05:45:04.551Z,20.76
2017-12-15T05:45:36.171Z,20.74
2017-12-15T05:46:07.799Z,20.72
2017-12-15T05:46:39.447Z,20.71
2017-12-15T05:47:11.119Z,20.72
2017-12-15T05:47:42.741Z,20.74
2017-12-15T05:48:14.568Z,20.74
2017-12-15T05:48:46.325Z,20.76
2017-12-15T05:49:17.964Z,20.78
2017-12-15T05:49:49.605Z,20.78
2017-12-15T05:50:21.251Z,20.78
2017-12-15T05:50:52.892Z,20.78
2017-12-15T05:51:24.531Z,20.79
2017-12-15T05:51:56.198Z,20.76
2017-12-15T05:52:27.827Z,20.75
2017-12-15T05:52:59.767Z,20.76
2017-12-15T05:53:31.408Z,20.75
2017-12-15T05:54:03.048Z,20.75
2017-12-15T05:54:34.714Z,20.74
2017-12-15T05:55:06.342Z,20.72
2017-12-15T05:55:37.978Z,20.74
2017-12-15T05:56:09.620Z,20.74
2017-12-15T05:56:41.256Z,20.74
2017-12-15T05:57:12.930Z,20.76
2017-12-15T05:57:44.559Z,20.75
2017-12-15T05:58:16.186Z,20.76
2017-12-15T05:58:47.828Z,20.75
2017-12-15T05:59:19.466Z,20.77
2017-12-15T05:59:51.117Z,20.75
2017-12-15T06:00:22.982Z,20.72
2017-12-15T06:00:54.609Z,20.73
2017-12-15T06:01:26.348Z,20.73
2017-12-15T06:01:57.970Z,20.73
2017-12-15T06:02:29.646Z,20.71
2017-12-15T06:03:01.277Z,20.71
2017-12-15T06:03:32.915Z,20.71
2017-12-15T06:04:04.551Z,20.72
2017-12-15T06:04:36.196Z,20.72
2017-12-15T06:05:07.835Z,20.71
2017-12-15T06:05:39.479Z,20.71
2017-12-15T06:06:11.119Z,20.70
2017-12-15T06:06:42.748Z,20.71
2017-12-15T06:07:14.406Z,20.72
2017-12-15T06:07:46.075Z,20.70
2017-12-15T06:08:17.711Z,20.70
2017-12-15T06:08:49.533Z,20.71
2017-12-15T06:09:21.283Z,20.73
2017-12-15T06:09:52.919Z,20.73
2017-12-15T06:10:24.570Z,20.70
2017-12-15T06:10:56.254Z,20.70
2017-12-15T06:11:27.886Z,20.69
2017-12-15T06:11:59.511Z,20.70
2017-12-15T06:12:31.138Z,20.72
2017-12-15T06:13:02.945Z,20.71
2017-12-15T06:13:34.570Z,20.70
2017-12-15T06:14:06.194Z,20.69
2017-12-15T06:14:37.822Z,20.70
2017-12-15T06:15:09.450Z,20.71
2017-12-15T06:15:41.080Z,20.73
2017-12-15T06:16:12.932Z,20.75
2017-12-15T06:16:44.881Z,20.74
2017-12-15T06:17:16.523Z,20.74
2017-12-15T06:17:48.355Z,20.72
2017-12-15T06:18:19.982Z,20.73
2017-12-15T06:18:51.756Z,20.72
2017-12-15T06:19:23.400Z,20.70
2017-12-15T06:19:55.037Z,20.71
2017-12-15T06:20:26.681Z,20.72
2017-12-15T06:20:58.320Z,20.72
2017-12-15T06:21:29.991Z,20.74
2017-12-15T06:22:01.621Z,20.72
2017-12-15T06:22:33.253Z,20.74
2017-12-15T06:23:04.888Z,20.72
2017-12-15T06:23:36.533Z,20.72
2017-12-15T06:24:08.166Z,20.72
2017-12-15T06:24:39.816Z,20.71
2017-12-15T06:25:11.458Z,20.72
2017-12-15T06:25:43.155Z,20.71
2017-12-15T06:26:15.051Z,20.71
2017-12-15T06:26:46.692Z,20.72
2017-12-15T06:27:18.334Z,20.71
2017-12-15T06:27:49.974Z,20.70
2017-12-15T06:28:21.606Z,20.68
2017-12-15T06:28:53.230Z,20.70
2017-12-15T06:29:24.854Z,20.74
2017-12-15T06:29:56.478Z,20.74
2017-12-15T06:30:28.107Z,20.73
2017-12-15T06:30:59.730Z,20.72
2017-12-15T06:31:31.396Z,20.70
2017-12-15T06:32:03.018Z,20.72
2017-12-15T06:32:34.753Z,20.74
2017-12-15T06:33:06.394Z,20.73
2017-12-15T06:33:38.033Z,20.72
2017-12-15T06:34:09.986Z,20.70
2017-12-15T06:34:41.627Z,20.71
2017-12-15T06:35:13.269Z,20.73
2017-12-15T06:35:44.894Z,20.73
2017-12-15T06:36:16.522Z,20.73
2017-12-15T06:36:48.502Z,20.72
2017-12-15T06:37:20.143Z,20.71
2017-12-15T06:37:51.783Z,20.70
2017-12-15T06:38:23.425Z,20.69
2017-12-15T06:38:55.069Z,20.70
2017-12-15T06:39:26.711Z,20.74
2017-12-15T06:39:58.338Z,20.75
2017-12-15T06:40:29.995Z,20.73
2017-12-15T06:41:01.633Z,20.74
2017-12-15T06:41:33.298Z,20.75
2017-12-15T06:42:04.927Z,20.74
2017-12-15T06:42:36.561Z,20.75
2017-12-15T06:43:08.202Z,20.75
2017-12-15T06:43:39.843Z,20.75
2017-12-15T06:44:11.514Z,20.76
2017-12-15T06:44:43.145Z,20.76
2017-12-15T06:45:14.979Z,20.78
2017-12-15T06:45:46.725Z,20.89
2017-12-15T06:46:18.363Z,20.91
2017-12-15T06:46:50.003Z,20.69
2017-12-15T06:47:21.648Z,20.35
2017-12-15T06:47:53.287Z,19.97